createdAt,value
2023-08-12T00:00:45.789Z,20.17
2023-08-12T00:03:12.426Z,20.15
2023-08-12T00:05:41.004Z,20.13
2023-08-12T00:08:07.460Z,20.13
2023-08-12T00:10:33.884Z,20.12
2023-08-12T00:13:00.501Z,20.10
2023-08-12T00:15:27.052Z,20.09
2023-08-12T00:17:53.755Z,20.12
2023-08-12T00:20:20.241Z,20.13
2023-08-12T00:22:46.758Z,20.14
2023-08-12T00:25:13.335Z,20.14
2023-08-12T00:27:39.894Z,20.13
2023-08-12T00:30:06.790Z,20.14
2023-08-12T00:32:33.268Z,20.11
2023-08-12T00:34:59.715Z,20.12
2023-08-12T00:37:26.175Z,20.12
2023-08-12T00:39:52.716Z,20.11
2023-08-12T00:42:19.161Z,20.12
2023-08-12T00:44:45.683Z,20.12
2023-08-12T00:47:12.537Z,20.11
2023-08-12T00:49:41.145Z,20.09
2023-08-12T00:52:07.716Z,20.08
2023-08-12T00:54:34.222Z,20.10
2023-08-12T00:57:00.666Z,20.09
2023-08-12T00:59:27.222Z,20.05
2023-08-12T01:01:53.693Z,20.02
2023-08-12T01:04:20.951Z,20.02
2023-08-12T01:06:47.433Z,20.00
2023-08-12T01:09:13.940Z,20.00
2023-08-12T01:11:50.094Z,19.99
2023-08-12T01:14:26.885Z,19.97
2023-08-12T01:16:59.759Z,19.98
2023-08-12T01:19:35.238Z,19.95
2023-08-12T01:22:03.363Z,19.94
2023-08-12T01:24:38.056Z,19.90
2023-08-12T01:27:05.733Z,19.88
2023-08-12T01:29:34.152Z,19.87
2023-08-12T01:32:11.542Z,19.87
2023-08-12T01:34:48.667Z,19.87
2023-08-12T01:37:24.369Z,19.86
2023-08-12T01:39:51.200Z,19.84
2023-08-12T01:42:20.397Z,19.79
2023-08-12T01:44:47.365Z,19.76
2023-08-12T01:47:14.817Z,19.76
2023-08-12T01:49:41.361Z,19.76
2023-08-12T01:52:07.815Z,19.76
2023-08-12T01:54:35.649Z,19.74
2023-08-12T01:57:06.706Z,19.69
2023-08-12T01:59:33.578Z,19.66
2023-08-12T02:02:00.054Z,19.62
2023-08-12T02:04:27.726Z,19.57
2023-08-12T02:06:55.435Z,19.57
2023-08-12T02:09:21.949Z,19.57
2023-08-12T02:11:48.402Z,19.57
2023-08-12T02:14:14.910Z,19.55
2023-08-12T02:16:41.587Z,19.53
2023-08-12T02:19:08.822Z,19.52
2023-08-12T02:21:35.752Z,19.50
2023-08-12T02:24:02.245Z,19.52
2023-08-12T02:26:28.699Z,19.53
2023-08-12T02:28:55.171Z,19.54
2023-08-12T02:31:22.417Z,19.56
2023-08-12T02:33:50.428Z,19.61
2023-08-12T02:36:17.279Z,19.58
2023-08-12T02:38:44.019Z,19.61
2023-08-12T02:41:10.521Z,19.61
2023-08-12T02:43:36.997Z,19.62
2023-08-12T02:46:03.591Z,19.61
2023-08-12T02:48:30.069Z,19.62
2023-08-12T02:50:56.570Z,19.62
2023-08-12T02:53:23.038Z,19.62
2023-08-12T02:55:49.552Z,19.61
2023-08-12T02:58:16.025Z,19.60
2023-08-12T03:00:44.790Z,19.61
2023-08-12T03:03:11.442Z,19.56
2023-08-12T03:05:38.259Z,19.56
2023-08-12T03:08:06.272Z,19.54
2023-08-12T03:10:34.706Z,19.52
2023-08-12T03:13:01.603Z,19.50
2023-08-12T03:15:28.127Z,19.48
2023-08-12T03:17:57.847Z,19.46
2023-08-12T03:20:24.499Z,19.43
2023-08-12T03:22:51.225Z,19.39
2023-08-12T03:25:18.079Z,19.36
2023-08-12T03:27:45.916Z,19.36
2023-08-12T03:30:12.841Z,19.36
2023-08-12T03:32:40.753Z,19.36
2023-08-12T03:35:07.512Z,19.38
2023-08-12T03:37:34.822Z,19.38
2023-08-12T03:40:01.610Z,19.38
2023-08-12T03:42:28.194Z,19.36
2023-08-12T03:44:54.713Z,19.37
2023-08-12T03:47:24.625Z,19.35
2023-08-12T03:49:51.546Z,19.34
2023-08-12T03:52:18.300Z,19.32
2023-08-12T03:54:44.760Z,19.30
2023-08-12T03:57:12.606Z,19.27
2023-08-12T03:59:39.230Z,19.22
2023-08-12T04:02:06.969Z,19.22
2023-08-12T04:04:33.437Z,19.22
2023-08-12T04:06:59.921Z,19.22
2023-08-12T04:09:26.378Z,19.23
2023-08-12T04:11:52.849Z,19.22
2023-08-12T04:14:19.655Z,19.22
2023-08-12T04:16:46.222Z,19.21
2023-08-12T04:19:13.264Z,19.18
2023-08-12T04:21:39.754Z,19.17
2023-08-12T04:24:06.811Z,19.18
2023-08-12T04:26:33.261Z,19.20
2023-08-12T04:29:00.060Z,19.21
2023-08-12T04:31:27.218Z,19.22
2023-08-12T04:33:54.025Z,19.23
2023-08-12T04:36:22.338Z,19.21
2023-08-12T04:38:49.742Z,19.20
2023-08-12T04:41:16.283Z,19.19
2023-08-12T04:43:42.861Z,19.20
2023-08-12T04:46:09.985Z,19.21
2023-08-12T04:48:36.795Z,19.23
2023-08-12T04:51:04.247Z,19.25
2023-08-12T04:53:30.835Z,19.25
2023-08-12T04:55:57.939Z,19.28
2023-08-12T04:58:24.531Z,19.31
2023-08-12T05:00:53.169Z,19.35
2023-08-12T05:03:21.033Z,19.38
2023-08-12T05:05:52.803Z,19.43
2023-08-12T05:08:20.896Z,19.47
2023-08-12T05:10:50.657Z,19.53
2023-08-12T05:13:18.079Z,19.61
2023-08-12T05:15:48.360Z,19.67
2023-08-12T05:18:16.832Z,19.75
2023-08-12T05:20:46.701Z,19.84
2023-08-12T05:23:13.951Z,19.93
2023-08-12T05:25:40.699Z,19.99
2023-08-12T05:28:07.261Z,20.07
2023-08-12T05:30:33.774Z,20.10
2023-08-12T05:33:00.269Z,20.11
2023-08-12T05:35:27.137Z,20.14
2023-08-12T05:37:54.110Z,20.17
2023-08-12T05:40:20.541Z,20.18
2023-08-12T05:42:47.020Z,20.18
2023-08-12T05:45:13.459Z,20.20
2023-08-12T05:47:39.931Z,20.21
2023-08-12T05:50:07.528Z,20.22
2023-08-12T05:52:34.139Z,20.25
2023-08-12T05:55:00.646Z,20.29
2023-08-12T05:57:29.449Z,20.32
2023-08-12T05:59:56.418Z,20.37
2023-08-12T06:02:22.867Z,20.40
2023-08-12T06:04:49.318Z,20.42
2023-08-12T06:07:15.774Z,20.45
2023-08-12T06:09:42.207Z,20.51
2023-08-12T06:12:08.657Z,20.53
2023-08-12T06:14:38.602Z,20.58
2023-08-12T06:17:05.071Z,20.61
2023-08-12T06:19:31.488Z,20.64
2023-08-12T06:21:57.941Z,20.68
2023-08-12T06:24:24.461Z,20.71
2023-08-12T06:26:50.927Z,20.75
2023-08-12T06:29:17.476Z,20.79
2023-08-12T06:31:43.975Z,20.85
2023-08-12T06:34:10.428Z,20.89
2023-08-12T06:36:36.867Z,20.97
2023-08-12T06:39:04.484Z,21.01
2023-08-12T06:41:30.935Z,21.07
2023-08-12T06:43:57.375Z,21.13
2023-08-12T06:46:23.908Z,21.21
2023-08-12T06:48:50.399Z,21.32
2023-08-12T06:51:16.862Z,21.45
2023-08-12T06:53:43.290Z,21.59
2023-08-12T06:56:10.065Z,21.75
2023-08-12T06:58:36.497Z,21.86
2023-08-12T07:01:03.044Z,21.96
2023-08-12T07:03:29.592Z,22.11
2023-08-12T07:05:56.114Z,22.25
2023-08-12T07:08:22.612Z,22.38
2023-08-12T07:10:49.083Z,22.50
2023-08-12T07:13:15.509Z,22.59
2023-08-12T07:15:42.014Z,22.65
2023-08-12T07:18:08.498Z,22.67
2023-08-12T07:20:34.964Z,22.68
2023-08-12T07:23:01.437Z,22.68
2023-08-12T07:25:27.874Z,22.68
2023-08-12T07:27:54.354Z,22.68
2023-08-12T07:30:20.810Z,22.71
2023-08-12T07:32:47.309Z,22.71
2023-08-12T07:35:13.757Z,22.74
2023-08-12T07:37:40.228Z,22.74
2023-08-12T07:40:07.314Z,22.77
2023-08-12T07:42:33.832Z,22.78
2023-08-12T07:45:00.303Z,22.77
2023-08-12T07:47:26.748Z,22.78
2023-08-12T07:49:53.195Z,22.77
2023-08-12T07:52:19.637Z,22.74
2023-08-12T07:54:46.094Z,22.74
2023-08-12T07:57:12.551Z,22.75
2023-08-12T07:59:38.990Z,22.77
2023-08-12T08:02:06.084Z,22.77
2023-08-12T08:04:32.597Z,22.78
2023-08-12T08:06:59.128Z,22.78
2023-08-12T08:09:25.835Z,22.77
2023-08-12T08:11:53.689Z,22.75
2023-08-12T08:14:21.274Z,22.75
2023-08-12T08:16:47.760Z,22.75
2023-08-12T08:19:14.352Z,22.75
2023-08-12T08:21:41.004Z,22.75
2023-08-12T08:24:07.918Z,22.75
2023-08-12T08:26:34.398Z,22.74
2023-08-12T08:29:00.894Z,22.75
2023-08-12T08:31:27.339Z,22.75
2023-08-12T08:33:53.786Z,22.75
2023-08-12T08:36:20.744Z,22.76
2023-08-12T08:38:47.195Z,22.78
2023-08-12T08:41:15.030Z,22.77
2023-08-12T08:43:44.817Z,22.77
2023-08-12T08:46:15.175Z,22.72
2023-08-12T08:48:42.934Z,22.72
2023-08-12T08:51:10.633Z,22.70
2023-08-12T08:56:14.572Z,22.71
2023-08-12T08:58:41.531Z,22.72
2023-08-12T09:01:08.317Z,22.74
2023-08-12T09:03:38.747Z,22.78
2023-08-12T09:06:05.574Z,22.81
2023-08-12T09:08:35.635Z,22.83
2023-08-12T09:11:03.157Z,22.89
2023-08-12T09:13:30.695Z,22.94
2023-08-12T09:15:57.305Z,22.99
2023-08-12T09:18:25.468Z,23.05
2023-08-12T09:20:52.606Z,23.07
2023-08-12T09:23:19.592Z,23.09
2023-08-12T09:25:46.550Z,23.08
2023-08-12T09:28:13.636Z,23.13
2023-08-12T09:30:40.918Z,23.16
2023-08-12T09:33:08.867Z,23.18
2023-08-12T09:35:39.508Z,23.21
2023-08-12T09:38:07.117Z,23.27
2023-08-12T09:40:35.370Z,23.28
2023-08-12T09:43:02.528Z,23.31
2023-08-12T09:45:29.628Z,23.33
2023-08-12T09:47:56.188Z,23.39
2023-08-12T09:50:26.414Z,23.40
2023-08-12T09:52:54.588Z,23.44
2023-08-12T09:55:23.218Z,23.46
2023-08-12T09:57:53.311Z,23.49
2023-08-12T10:00:21.782Z,23.48
2023-08-12T10:02:50.788Z,23.49
2023-08-12T10:05:22.736Z,23.54
2023-08-12T10:07:49.672Z,23.54
2023-08-12T10:10:16.717Z,23.58
2023-08-12T10:12:43.452Z,23.61
2023-08-12T10:15:11.504Z,23.66
2023-08-12T10:17:43.465Z,23.69
2023-08-12T10:20:15.012Z,23.75
2023-08-12T10:22:44.075Z,23.80
2023-08-12T10:25:10.511Z,23.85
2023-08-12T10:27:37.912Z,23.89
2023-08-12T10:30:05.574Z,23.94
2023-08-12T10:32:33.299Z,24.02
2023-08-12T10:35:00.057Z,24.07
2023-08-12T10:37:27.300Z,24.14
2023-08-12T10:39:56.823Z,24.29
2023-08-12T10:42:43.517Z,24.48
2023-08-12T10:45:14.368Z,24.54
2023-08-12T10:48:10.583Z,24.57
2023-08-12T10:50:37.131Z,24.61
2023-08-12T10:53:31.008Z,24.68
2023-08-12T10:55:59.320Z,24.71
2023-08-12T10:58:28.185Z,24.75
2023-08-12T11:00:59.075Z,24.77
2023-08-12T11:03:25.551Z,24.82
2023-08-12T11:05:56.596Z,24.86
2023-08-12T11:08:28.307Z,24.91
2023-08-12T11:11:00.799Z,24.96
2023-08-12T11:13:30.146Z,24.98
2023-08-12T11:16:14.535Z,25.00
2023-08-12T11:18:41.933Z,25.03
2023-08-12T11:21:08.640Z,25.02
2023-08-12T11:23:37.502Z,25.03
2023-08-12T11:26:04.245Z,25.10
2023-08-12T11:28:30.687Z,25.16
2023-08-12T11:30:57.295Z,25.16
2023-08-12T11:33:24.795Z,25.18
2023-08-12T11:35:51.353Z,25.11
2023-08-12T11:38:19.131Z,25.15
2023-08-12T11:40:45.581Z,25.11
2023-08-12T11:43:12.117Z,25.04
2023-08-12T11:45:42.949Z,25.06
2023-08-12T11:48:10.782Z,25.11
2023-08-12T11:50:37.380Z,25.06
2023-08-12T11:53:04.056Z,25.05
2023-08-12T11:55:30.546Z,25.02
2023-08-12T11:57:59.105Z,24.90
2023-08-12T12:00:26.368Z,24.79
2023-08-12T12:02:57.091Z,24.79
2023-08-12T12:05:26.357Z,24.76
2023-08-12T12:07:53.808Z,24.73
2023-08-12T12:10:23.039Z,24.66
2023-08-12T12:12:49.803Z,24.65
2023-08-12T12:15:17.101Z,24.61
2023-08-12T12:17:46.121Z,24.60
2023-08-12T12:20:12.677Z,24.57
2023-08-12T12:22:39.297Z,24.54
2023-08-12T12:25:09.937Z,24.55
2023-08-12T12:27:37.441Z,24.55
2023-08-12T12:30:04.126Z,24.55
2023-08-12T12:32:30.690Z,24.58
2023-08-12T12:34:57.212Z,24.63
2023-08-12T12:37:23.725Z,24.64
2023-08-12T12:39:50.185Z,24.64
2023-08-12T12:42:16.652Z,24.64
2023-08-12T12:44:43.092Z,24.66
2023-08-12T12:47:12.092Z,24.71
2023-08-12T12:49:39.148Z,24.76
2023-08-12T12:52:05.848Z,24.81
2023-08-12T12:54:32.288Z,24.86
2023-08-12T12:56:58.970Z,24.91
2023-08-12T12:59:25.399Z,24.94
2023-08-12T13:01:51.931Z,25.01
2023-08-12T13:04:18.475Z,25.06
2023-08-12T13:06:45.043Z,25.14
2023-08-12T13:09:11.560Z,25.19
2023-08-12T13:11:38.009Z,25.21
2023-08-12T13:14:04.963Z,25.30
2023-08-12T13:16:31.552Z,25.30
2023-08-12T13:19:01.874Z,25.35
2023-08-12T13:21:28.755Z,25.39
2023-08-12T13:23:56.350Z,25.39
2023-08-12T13:26:23.006Z,25.47
2023-08-12T13:28:49.473Z,25.53
2023-08-12T13:31:16.091Z,25.57
2023-08-12T13:33:42.567Z,25.62
2023-08-12T13:36:09.016Z,25.72
2023-08-12T13:38:35.451Z,25.78
2023-08-12T13:41:01.931Z,25.89
2023-08-12T13:43:28.761Z,25.96
2023-08-12T13:45:55.282Z,26.04
2023-08-12T13:48:21.786Z,26.06
2023-08-12T13:50:50.552Z,26.10
2023-08-12T13:53:17.116Z,26.21
2023-08-12T13:55:43.583Z,26.30
2023-08-12T13:58:10.034Z,26.52
2023-08-12T14:00:36.494Z,26.63
2023-08-12T14:03:03.169Z,26.79
2023-08-12T14:05:30.447Z,26.84
2023-08-12T14:07:56.936Z,26.92
2023-08-12T14:10:23.389Z,27.09
2023-08-12T14:12:52.011Z,27.17
2023-08-12T14:15:19.468Z,27.53
2023-08-12T14:17:46.021Z,27.74
2023-08-12T14:20:12.869Z,27.96
2023-08-12T14:22:39.273Z,28.00
2023-08-12T14:25:06.610Z,27.90
2023-08-12T14:27:33.221Z,27.83
2023-08-12T14:29:59.731Z,27.92
2023-08-12T14:32:26.237Z,28.06
2023-08-12T14:34:52.708Z,28.10
2023-08-12T14:37:19.164Z,28.22
2023-08-12T14:39:45.602Z,28.20
2023-08-12T14:42:12.460Z,28.09
2023-08-12T14:44:38.972Z,28.21
2023-08-12T14:47:05.952Z,28.37
2023-08-12T14:49:32.409Z,28.44
2023-08-12T14:51:58.888Z,28.47
2023-08-12T14:54:25.422Z,28.43
2023-08-12T14:56:51.920Z,28.33
2023-08-12T14:59:18.639Z,28.11
2023-08-12T15:01:45.086Z,28.12
2023-08-12T15:04:11.552Z,28.10
2023-08-12T15:06:38.003Z,28.04
2023-08-12T15:09:04.546Z,28.01
2023-08-12T15:11:31.043Z,27.96
2023-08-12T15:13:57.536Z,27.92
2023-08-12T15:16:24.062Z,28.10
2023-08-12T15:18:50.565Z,28.07
2023-08-12T15:21:17.274Z,28.16
2023-08-12T15:23:43.715Z,28.15
2023-08-12T15:26:10.170Z,28.28
2023-08-12T15:28:36.607Z,28.50
2023-08-12T15:31:03.173Z,28.48
2023-08-12T15:33:29.696Z,28.48
2023-08-12T15:35:56.186Z,28.74
2023-08-12T15:38:22.660Z,28.90
2023-08-12T15:40:49.177Z,29.09
2023-08-12T15:43:15.673Z,29.21
2023-08-12T15:45:43.388Z,29.32
2023-08-12T15:48:10.319Z,29.24
2023-08-12T15:50:37.255Z,29.15
2023-08-12T15:53:04.602Z,29.06
2023-08-12T15:55:31.080Z,28.98
2023-08-12T15:57:57.559Z,28.95
2023-08-12T16:00:24.015Z,28.97
2023-08-12T16:02:50.557Z,28.88
2023-08-12T16:05:17.075Z,28.93
2023-08-12T16:07:43.690Z,29.09
2023-08-12T16:10:10.555Z,29.00
2023-08-12T16:12:37.011Z,28.92
2023-08-12T16:15:03.602Z,28.80
2023-08-12T16:17:30.078Z,28.72
2023-08-12T16:19:57.298Z,28.68
2023-08-12T16:22:23.747Z,28.63
2023-08-12T16:24:50.255Z,28.54
2023-08-12T16:27:17.242Z,28.48
2023-08-12T16:29:43.682Z,28.42
2023-08-12T16:32:10.214Z,28.36
2023-08-12T16:34:36.726Z,28.31
2023-08-12T16:37:20.340Z,28.25
2023-08-12T16:39:48.205Z,28.18
2023-08-12T16:42:14.858Z,28.16
2023-08-12T16:44:41.499Z,28.09
2023-08-12T16:47:07.955Z,28.06
2023-08-12T16:49:34.399Z,28.02
2023-08-12T16:52:00.842Z,28.01
2023-08-12T16:54:27.830Z,27.97
2023-08-12T16:56:54.274Z,27.95
2023-08-12T16:59:21.133Z,27.92
2023-08-12T17:01:48.597Z,27.92
2023-08-12T17:04:15.073Z,27.95
2023-08-12T17:06:41.923Z,27.96
2023-08-12T17:09:16.447Z,27.96
2023-08-12T17:11:43.455Z,27.93
2023-08-12T17:14:10.587Z,27.91
2023-08-12T17:16:37.799Z,27.90
2023-08-12T17:19:04.470Z,27.98
2023-08-12T17:21:30.965Z,27.98
2023-08-12T17:23:57.431Z,28.01
2023-08-12T17:26:23.900Z,28.00
2023-08-12T17:28:52.142Z,27.98
2023-08-12T17:31:19.212Z,27.93
2023-08-12T17:33:46.460Z,27.91
2023-08-12T17:36:12.976Z,27.84
2023-08-12T17:38:39.425Z,27.77
2023-08-12T17:41:05.962Z,27.72
2023-08-12T17:43:32.463Z,27.68
2023-08-12T17:45:58.965Z,27.64
2023-08-12T17:48:25.429Z,27.60
2023-08-12T17:50:51.886Z,27.58
2023-08-12T17:53:18.402Z,27.55
2023-08-12T17:55:44.931Z,27.53
2023-08-12T17:58:11.394Z,27.52
2023-08-12T18:00:37.929Z,27.49
2023-08-12T18:03:04.618Z,27.48
2023-08-12T18:05:31.221Z,27.48
2023-08-12T18:07:57.679Z,27.44
2023-08-12T18:10:24.646Z,27.31
2023-08-12T18:12:51.110Z,27.23
2023-08-12T18:15:17.577Z,27.10
2023-08-12T18:17:44.224Z,27.01
2023-08-12T18:20:11.229Z,26.97
2023-08-12T18:22:37.705Z,26.93
2023-08-12T18:25:04.413Z,26.88
2023-08-12T18:27:30.842Z,26.80
2023-08-12T18:29:57.616Z,26.76
2023-08-12T18:32:24.091Z,26.74
2023-08-12T18:34:50.542Z,26.76
2023-08-12T18:37:17.012Z,26.74
2023-08-12T18:39:43.461Z,26.74
2023-08-12T18:42:11.573Z,26.73
2023-08-12T18:44:38.360Z,26.67
2023-08-12T18:47:05.070Z,26.64
2023-08-12T18:49:31.617Z,26.63
2023-08-12T18:51:58.095Z,26.58
2023-08-12T18:54:24.539Z,26.56
2023-08-12T18:56:51.123Z,26.47
2023-08-12T18:59:17.596Z,26.37
2023-08-12T19:01:44.046Z,26.36
2023-08-12T19:04:11.658Z,26.35
2023-08-12T19:06:38.121Z,26.33
2023-08-12T19:09:04.585Z,26.33
2023-08-12T19:11:31.019Z,26.31
2023-08-12T19:13:57.633Z,26.31
2023-08-12T19:16:24.101Z,26.30
2023-08-12T19:18:50.725Z,26.30
2023-08-12T19:21:17.164Z,26.27
2023-08-12T19:23:43.664Z,26.25
2023-08-12T19:26:10.104Z,26.20
2023-08-12T19:28:36.542Z,26.16
2023-08-12T19:31:03.123Z,26.14
2023-08-12T19:33:29.608Z,26.08
2023-08-12T19:35:56.074Z,26.06
2023-08-12T19:38:22.524Z,25.99
2023-08-12T19:40:49.016Z,25.96
2023-08-12T19:43:15.470Z,25.93
2023-08-12T19:45:42.376Z,25.91
2023-08-12T19:48:08.815Z,25.87
2023-08-12T19:50:37.427Z,25.80
2023-08-12T19:53:04.688Z,25.77
2023-08-12T19:55:31.195Z,25.75
2023-08-12T19:57:57.627Z,25.74
2023-08-12T20:00:24.119Z,25.75
2023-08-12T20:02:50.691Z,25.71
2023-08-12T20:05:19.209Z,25.69
2023-08-12T20:07:47.910Z,25.69
2023-08-12T20:10:21.376Z,25.68
2023-08-12T20:12:48.158Z,25.65
2023-08-12T20:15:15.045Z,25.62
2023-08-12T20:17:42.488Z,25.58
2023-08-12T20:20:13.075Z,25.55
2023-08-12T20:22:59.159Z,25.51
2023-08-12T20:25:31.197Z,25.46
2023-08-12T20:27:59.209Z,25.43
2023-08-12T20:30:26.531Z,25.39
2023-08-12T20:32:54.793Z,25.35
2023-08-12T20:35:21.603Z,25.32
2023-08-12T20:37:48.094Z,25.29
2023-08-12T20:40:14.922Z,25.27
2023-08-12T20:42:41.610Z,25.25
2023-08-12T20:45:08.638Z,25.22
2023-08-12T20:47:35.384Z,25.15
2023-08-12T20:50:02.417Z,25.13
2023-08-12T20:52:28.898Z,25.10
2023-08-12T20:54:55.347Z,25.06
2023-08-12T20:57:21.803Z,25.08
2023-08-12T20:59:48.353Z,25.02
2023-08-12T21:02:15.348Z,24.96
2023-08-12T21:04:42.293Z,24.93
2023-08-12T21:07:08.946Z,24.91
2023-08-12T21:09:35.474Z,24.89
2023-08-12T21:12:03.649Z,24.86
2023-08-12T21:14:30.232Z,24.85
2023-08-12T21:16:56.756Z,24.84
2023-08-12T21:19:23.239Z,24.82
2023-08-12T21:21:49.700Z,24.81
2023-08-12T21:24:16.198Z,24.79
2023-08-12T21:26:42.619Z,24.76
2023-08-12T21:29:09.076Z,24.72
2023-08-12T21:31:35.550Z,24.67
2023-08-12T21:34:02.030Z,24.62
2023-08-12T21:36:28.521Z,24.58
2023-08-12T21:38:54.967Z,24.54
2023-08-12T21:41:21.429Z,24.49
2023-08-12T21:43:48.372Z,24.46
2023-08-12T21:46:14.916Z,24.42
2023-08-12T21:48:41.445Z,24.41
2023-08-12T21:51:09.638Z,24.39
2023-08-12T21:53:36.118Z,24.37
2023-08-12T21:56:02.573Z,24.35
2023-08-12T21:58:29.028Z,24.34
2023-08-12T22:00:58.359Z,24.32
2023-08-12T22:03:24.813Z,24.35
2023-08-12T22:05:52.049Z,24.36
2023-08-12T22:08:18.524Z,24.28
2023-08-12T22:10:45.426Z,24.19
2023-08-12T22:13:11.965Z,24.17
2023-08-12T22:15:38.465Z,24.15
2023-08-12T22:18:05.175Z,24.10
2023-08-12T22:20:31.722Z,24.08
2023-08-12T22:22:58.193Z,24.07
2023-08-12T22:25:24.652Z,24.16
2023-08-12T22:27:51.219Z,24.04
2023-08-12T22:30:17.741Z,23.97
2023-08-12T22:32:44.975Z,23.92
2023-08-12T22:35:12.086Z,23.91
2023-08-12T22:37:38.527Z,23.87
2023-08-12T22:40:06.296Z,23.82
2023-08-12T22:42:32.764Z,23.82
2023-08-12T22:44:59.186Z,23.83
2023-08-12T22:47:25.674Z,23.75
2023-08-12T22:49:52.118Z,23.67
2023-08-12T22:52:18.554Z,23.68
2023-08-12T22:54:44.993Z,23.67
2023-08-12T22:57:11.435Z,23.62
2023-08-12T22:59:37.862Z,23.53
2023-08-12T23:02:04.434Z,23.43
2023-08-12T23:04:30.925Z,23.37
2023-08-12T23:06:57.511Z,23.36
2023-08-12T23:09:23.981Z,23.34
2023-08-12T23:11:50.416Z,23.33
2023-08-12T23:14:16.861Z,23.34
2023-08-12T23:16:43.463Z,23.32
2023-08-12T23:19:12.211Z,23.29
2023-08-12T23:21:39.044Z,23.23
2023-08-12T23:24:05.832Z,23.21
2023-08-12T23:26:32.284Z,23.19
2023-08-12T23:28:58.739Z,23.17
2023-08-12T23:31:25.241Z,23.16
2023-08-12T23:33:51.781Z,23.16
2023-08-12T23:36:19.221Z,23.16
2023-08-12T23:38:45.964Z,23.17
2023-08-12T23:41:12.530Z,23.16
2023-08-12T23:43:38.962Z,23.12
2023-08-12T23:46:05.451Z,23.09
2023-08-12T23:48:31.923Z,23.06
2023-08-12T23:50:58.345Z,23.06
2023-08-12T23:53:24.840Z,23.05
2023-08-12T23:55:51.276Z,23.03
2023-08-12T23:58:17.736Z,23.01
